Time;durP1;ratioP1;P1;durP2;ratioP2;P2;SDS_P1;SDS_P2;PMS_P1;PMS_P2;Temp;Humidity;BMP_temperature;BMP_pressure;BME280_temperature;BME280_humidity;BME280_pressure;Samples;Min_cycle;Max_cycle;Signal;HPM_P1;HPM_P2
2023/09/04 00:02:17;;;;;;;312.25;155.75;;;;;;;;;;5016290;28;20392;-80
2023/09/04 00:04:42;;;;;;;282.77;132.80;;;;;;;;;;4999267;28;20076;-85
2023/09/04 00:07:07;;;;;;;267.23;112.00;;;;;;;;;;4998670;28;20037;-84
2023/09/04 00:09:32;;;;;;;269.88;118.43;;;;;;;;;;4998688;28;20025;-81
2023/09/04 00:11:57;;;;;;;251.80;97.40;;;;;;;;;;4998140;28;20244;-81
2023/09/04 00:14:23;;;;;;;303.63;162.67;;;;;;;;;;5014974;28;20996;-82
2023/09/04 00:16:48;;;;;;;326.87;172.93;;;;;;;;;;4997662;28;20030;-83
2023/09/04 00:19:13;;;;;;;342.37;163.17;;;;;;;16.88;nan;101336.59;4999463;28;20323;-81
2023/09/04 00:21:38;;;;;;;310.00;129.20;;;;;;;;;;4997954;28;20436;-83
2023/09/04 00:24:03;;;;;;;284.83;138.50;;;;;;;;;;4997739;28;20037;-83
2023/09/04 00:26:29;;;;;;;267.23;105.28;;;;;;;16.71;nan;101459.47;4997094;28;20034;-81
2023/09/04 00:28:54;;;;;;;260.20;108.55;;;;;;;;;;4996384;28;20096;-83
2023/09/04 00:31:21;;;;;;;257.37;99.63;;;;;;;;;;5001943;28;20041;-82
2023/09/04 00:33:46;;;;;;;275.13;117.88;;;;;;;;;;5004667;28;20375;-82
2023/09/04 00:36:11;;;;;;;285.85;147.38;;;;;;;;;;5011774;28;20084;-81
2023/09/04 00:38:37;;;;;;;259.07;114.20;;;;;;;;;;5017012;28;20079;-84
2023/09/04 00:41:02;;;;;;;266.23;106.93;;;;;;;;;;5020120;28;20270;-83
2023/09/04 00:43:33;;;;;;;242.70;89.60;;;;;;;;;;5027061;28;20275;-84
2023/09/04 00:45:59;;;;;;;247.40;93.00;;;;;;;;;;5008739;28;20261;-82
2023/09/04 00:48:24;;;;;;;;;;;;;;;16.91;nan;101336.25;5019100;28;20025;-81
2023/09/04 00:50:49;;;;;;;;;;;;;;;16.87;nan;101333.06;4989788;28;19917;-82
2023/09/04 00:53:18;;;;;;;;;;;;;;;16.75;nan;101315.72;5004303;28;19917;-80
2023/09/04 00:55:44;;;;;;;281.80;148.88;;;;;;;;;;5021497;28;19913;-83
2023/09/04 00:58:09;;;;;;;;;;;;;;;16.54;nan;101330.50;5020789;28;20059;-82
2023/09/04 01:00:34;;;;;;;18.45;16.50;;;;;;;;;;5002190;28;19918;-81
2023/09/04 01:03:02;;;;;;;12.03;11.23;;;;;;;16.39;nan;101342.03;4997314;28;20030;-82
2023/09/04 01:05:29;;;;;;;13.82;9.80;;;;;;;;;;4996988;28;20033;-81
2023/09/04 01:07:55;;;;;;;0.10;0.10;;;;;;;;;;4998344;28;20717;-83
2023/09/04 01:10:20;;;;;;;;;;;;;;;16.37;nan;101349.38;4998059;28;20072;-84
2023/09/04 01:12:50;;;;;;;;;;;;;;;16.36;nan;101337.88;4981381;28;19909;-82
2023/09/04 01:15:16;;;;;;;0.20;0.20;;;;;;;;;;5006395;28;19918;-81
2023/09/04 01:17:42;;;;;;;;;;;;;;;16.39;nan;101339.38;5000948;28;20034;-82
2023/09/04 01:20:26;;;;;;;;;;;;;;;16.49;nan;101332.84;5006545;28;20262;-79
2023/09/04 01:22:52;;;;;;;0.10;0.10;;;;;;;16.62;nan;101336.81;5001539;28;19917;-83
2023/09/04 01:25:17;;;;;;;;;;;;;;;16.70;nan;101326.94;5020249;28;20471;-81
2023/09/04 01:27:46;;;;;;;0.10;0.10;;;;;;;;;;4997925;28;20503;-80
2023/09/04 01:30:23;;;;;;;0.10;0.10;;;;;;;;;;4999175;28;20394;-79
2023/09/04 01:32:51;;;;;;;;;;;;;;;17.04;nan;101333.84;5002945;28;20075;-79
2023/09/04 01:35:17;;;;;;;0.20;0.20;;;;;;;;;;5028415;28;19931;-80
2023/09/04 01:37:42;;;;;;;;;;;;;;;;;;5000445;28;20030;-82
2023/09/04 01:40:08;;;;;;;;;;;;;;;17.03;nan;101329.50;5001447;28;19916;-80
2023/09/04 01:42:34;;;;;;;;;;;;;;;17.07;nan;101324.66;5021300;28;19916;-84
2023/09/04 01:45:00;;;;;;;;;;;;;;;17.08;nan;101316.44;5020775;28;19919;-80
2023/09/04 01:47:25;;;;;;;0.20;0.20;;;;;;;;;;5020362;28;19940;-83
2023/09/04 01:49:50;;;;;;;;;;;;;;;16.97;nan;101325.69;5039078;28;20631;-79
2023/09/04 01:52:17;;;;;;;;;;;;;;;;;;5039790;28;19913;-79
2023/09/04 01:54:42;;;;;;;0.10;0.10;;;;;;;;;;5000819;28;19918;-80
2023/09/04 01:57:07;;;;;;;0.10;0.10;;;;;;;16.89;nan;101339.06;5002493;28;20139;-80
2023/09/04 01:59:33;;;;;;;0.10;0.10;;;;;;;;;;5020640;28;20026;-80
2023/09/04 02:01:59;;;;;;;0.17;0.17;;;;;;;16.95;nan;101327.69;5003616;28;20030;-80
2023/09/04 02:04:25;;;;;;;0.10;0.10;;;;;;;;;;5002896;28;20401;-82
2023/09/04 02:06:51;;;;;;;0.20;0.20;;;;;;;16.93;nan;101324.38;5002720;28;20078;-80
2023/09/04 02:09:16;;;;;;;0.10;0.10;;;;;;;16.95;nan;101322.38;5002247;28;20026;-81
2023/09/04 02:11:42;;;;;;;0.10;0.10;;;;;;;;;;4999262;28;20030;-81
2023/09/04 02:14:09;;;;;;;0.10;0.10;;;;;;;16.81;nan;101324.94;4980575;28;20026;-84
2023/09/04 02:16:34;;;;;;;0.10;0.10;;;;;;;;;;4965320;28;20149;-84
2023/09/04 02:18:59;;;;;;;0.10;0.10;;;;;;;;;;4981577;28;20422;-82
2023/09/04 02:21:25;;;;;;;0.10;0.10;;;;;;;;;;4981943;28;20030;-80
2023/09/04 02:23:50;;;;;;;;;;;;;;;16.91;nan;101320.22;5004475;28;20017;-79
2023/09/04 02:26:15;;;;;;;;;;;;;;;16.87;nan;101309.03;5019149;28;19909;-80
2023/09/04 02:28:41;;;;;;;0.10;0.10;;;;;;;;;;5019770;28;19909;-81
2023/09/04 02:31:06;;;;;;;0.10;0.10;;;;;;;;;;5017799;28;20026;-82
2023/09/04 02:33:32;;;;;;;0.17;0.17;;;;;;;16.84;nan;101319.25;5000200;28;20457;-82
2023/09/04 02:35:57;;;;;;;0.10;0.10;;;;;;;16.77;nan;101311.88;4999677;28;20029;-80
2023/09/04 02:38:23;;;;;;;0.10;0.10;;;;;;;;;;5000391;28;20073;-80
2023/09/04 02:40:48;;;;;;;0.10;0.10;;;;;;;;;;4999959;28;20033;-80
2023/09/04 02:43:13;;;;;;;0.10;0.10;;;;;;;16.54;nan;101334.97;4999346;28;20125;-81
2023/09/04 02:45:39;;;;;;;0.10;0.10;;;;;;;;;;5021609;28;20025;-80
2023/09/04 02:48:04;;;;;;;0.10;0.10;;;;;;;;;;5037535;28;20104;-80
2023/09/04 02:50:31;;;;;;;0.10;0.10;;;;;;;;;;5020006;28;20909;-81
2023/09/04 02:52:56;;;;;;;0.10;0.10;;;;;;;;;;5037632;28;20029;-79
2023/09/04 02:55:21;;;;;;;;;;;;;;;16.21;nan;101324.41;5020062;28;20040;-80
2023/09/04 02:57:47;;;;;;;;;;;;;;;16.10;nan;101306.06;5019667;28;19909;-80
2023/09/04 03:00:13;;;;;;;0.10;0.10;;;;;;;;;;5020513;28;19921;-81
2023/09/04 03:02:38;;;;;;;0.10;0.10;;;;;;;;;;5006464;28;20482;-81
2023/09/04 03:05:03;;;;;;;0.17;0.17;;;;;;;;;;5016881;28;20026;-82
2023/09/04 03:07:28;;;;;;;0.20;0.20;;;;;;;;;;4999688;28;20355;-81
2023/09/04 03:09:55;;;;;;;0.10;0.10;;;;;;;;;;5000157;28;20470;-81
2023/09/04 03:12:20;;;;;;;0.10;0.10;;;;;;;;;;5018435;28;20389;-81
2023/09/04 03:14:45;;;;;;;0.10;0.10;;;;;;;;;;4999584;28;20076;-81
2023/09/04 03:17:11;;;;;;;0.10;0.10;;;;;;;;;;5004726;28;20031;-80
2023/09/04 03:19:36;;;;;;;;;;;;;;;15.86;nan;101299.75;5019625;28;20030;-81
2023/09/04 03:22:01;;;;;;;0.10;0.10;;;;;;;;;;5001197;28;19974;-79
2023/09/04 03:24:26;;;;;;;0.10;0.10;;;;;;;;;;5002056;28;20048;-79
2023/09/04 03:26:53;;;;;;;0.10;0.10;;;;;;;;;;5000704;28;20076;-79
2023/09/04 03:29:24;;;;;;;0.10;0.10;;;;;;;;;;5001760;28;20398;-82
2023/09/04 03:31:49;;;;;;;0.10;0.10;;;;;;;;;;5002595;28;20045;-82
2023/09/04 03:34:14;;;;;;;0.10;0.10;;;;;;;;;;4998900;28;20513;-78
2023/09/04 03:36:40;;;;;;;0.10;0.10;;;;;;;16.20;nan;101312.03;4999622;28;20025;-79
2023/09/04 03:39:07;;;;;;;0.13;0.13;;;;;;;;;;5021337;28;20056;-81
2023/09/04 03:41:32;;;;;;;0.10;0.10;;;;;;;;;;5039483;28;20021;-79
2023/09/04 03:43:57;;;;;;;0.20;0.20;;;;;;;;;;5038024;28;20025;-79
2023/09/04 03:46:22;;;;;;;0.20;0.20;;;;;;;;;;5021080;28;20503;-80
2023/09/04 03:48:47;;;;;;;0.10;0.10;;;;;;;;;;5032925;28;20026;-80
2023/09/04 03:51:14;;;;;;;0.20;0.20;;;;;;;;;;5020463;28;20280;-79
2023/09/04 03:53:39;;;;;;;0.10;0.10;;;;;;;;;;5018996;28;20033;-79
2023/09/04 03:56:04;;;;;;;0.10;0.10;;;;;;;;;;5001273;28;20086;-81
2023/09/04 03:58:31;;;;;;;0.10;0.10;;;;;;;;;;5018557;28;20029;-80
2023/09/04 04:00:59;;;;;;;0.10;0.10;;;;;;;;;;5001496;28;20064;-78
2023/09/04 04:03:24;;;;;;;0.10;0.10;;;;;;;;;;5018963;28;20037;-79
2023/09/04 04:05:50;;;;;;;0.10;0.10;;;;;;;;;;5018660;28;20017;-80
2023/09/04 04:08:15;;;;;;;0.10;0.10;;;;;;;;;;5001446;28;20276;-81
2023/09/04 04:10:40;;;;;;;0.10;0.10;;;;;;;15.78;nan;101296.22;5001154;28;21269;-80
2023/09/04 04:13:05;;;;;;;;;;;;;;;;;;4985032;28;20030;-80
2023/09/04 04:15:30;;;;;;;;;;;;;;;;;;5004785;28;20287;-80
2023/09/04 04:17:56;;;;;;;;;;;;;;;;;;5023906;28;19913;-79
2023/09/04 04:20:22;;;;;;;;;;;;;;;;;;5023408;28;19913;-81
2023/09/04 04:22:47;;;;;;;;;;;;;;;;;;5023663;28;20008;-82
2023/09/04 04:25:12;;;;;;;;;;;;;;;;;;5007088;28;19965;-83
2023/09/04 04:27:38;;;;;;;0.10;0.10;;;;;;;;;;5004800;28;20412;-81
2023/09/04 04:30:04;;;;;;;0.10;0.10;;;;;;;;;;5022164;28;20385;-80
2023/09/04 04:32:29;;;;;;;0.10;0.10;;;;;;;;;;5022108;28;20037;-79
2023/09/04 04:34:54;;;;;;;0.10;0.10;;;;;;;;;;5004273;28;20076;-80
2023/09/04 04:37:19;;;;;;;0.10;0.10;;;;;;;;;;5006174;28;20363;-83
2023/09/04 04:39:45;;;;;;;0.10;0.10;;;;;;;;;;5024701;28;20286;-80
2023/09/04 04:42:10;;;;;;;0.10;0.10;;;;;;;;;;5041789;28;20028;-79
2023/09/04 04:44:36;;;;;;;0.10;0.10;;;;;;;;;;5042217;28;20893;-79
2023/09/04 04:47:01;;;;;;;0.10;0.10;;;;;;;;;;5023661;28;20395;-80
2023/09/04 04:49:26;;;;;;;0.10;0.10;;;;;;;;;;5023938;28;20771;-80
2023/09/04 04:51:51;;;;;;;0.10;0.10;;;;;;;;;;5042044;28;20423;-81
2023/09/04 04:54:17;;;;;;;0.10;0.10;;;;;;;;;;5034600;28;20407;-79
2023/09/04 04:56:42;;;;;;;0.10;0.10;;;;;;;;;;5040995;28;20025;-80
2023/09/04 04:59:08;;;;;;;0.00;0.00;;;;;;;;;;5041036;28;20387;-79
2023/09/04 05:01:33;;;;;;;0.00;0.00;;;;;;;;;;5041736;28;20411;-79
2023/09/04 05:03:58;;;;;;;;;;;;;;;16.35;nan;101315.69;5023912;28;20029;-80
2023/09/04 05:06:23;;;;;;;0.10;0.10;;;;;;;;;;5023390;28;19917;-81
2023/09/04 05:08:49;;;;;;;0.10;0.10;;;;;;;;;;5023486;28;20268;-79
2023/09/04 05:11:15;;;;;;;0.10;0.10;;;;;;;;;;5002616;28;20034;-81
2023/09/04 05:13:40;;;;;;;0.10;0.10;;;;;;;;;;5036019;28;20035;-82
2023/09/04 05:16:06;;;;;;;0.10;0.10;;;;;;;;;;5003051;28;20828;-80
2023/09/04 05:18:31;;;;;;;;;;;;;;;16.10;nan;101317.56;5003274;28;20033;-81
2023/09/04 05:20:56;;;;;;;0.10;0.10;;;;;;;;;;5003249;28;19910;-81
2023/09/04 05:23:22;;;;;;;0.10;0.10;;;;;;;;;;5003058;28;20037;-80
2023/09/04 05:25:51;;;;;;;0.10;0.10;;;;;;;;;;5001897;28;20112;-81
2023/09/04 05:28:16;;;;;;;0.10;0.10;;;;;;;;;;5002372;28;20034;-80
2023/09/04 05:30:41;;;;;;;0.10;0.10;;;;;;;;;;5020195;28;20030;-80
2023/09/04 05:33:06;;;;;;;0.10;0.10;;;;;;;;;;4986228;28;20029;-79
2023/09/04 05:35:32;;;;;;;0.10;0.10;;;;;;;;;;5003040;28;20389;-83
2023/09/04 05:37:58;;;;;;;0.10;0.10;;;;;;;;;;5003188;28;20283;-80
2023/09/04 05:40:26;;;;;;;0.10;0.10;;;;;;;;;;5022033;28;20605;-79
2023/09/04 05:43:04;;;;;;;0.10;0.10;;;;;;;;;;5008215;28;20087;-82
2023/09/04 05:45:29;;;;;;;0.10;0.10;;;;;;;;;;5022222;28;20026;-79
2023/09/04 05:47:54;;;;;;;;;;;;;;;17.35;nan;101327.66;5021084;28;20061;-81
2023/09/04 05:50:20;;;;;;;;;;;;;;;17.46;nan;101321.06;5022494;28;19909;-79
2023/09/04 05:52:45;;;;;;;;;;;;;;;17.66;nan;101321.41;5002647;28;19913;-80
2023/09/04 05:55:10;;;;;;;;;;;;;;;17.91;nan;101327.44;5003266;28;20308;-81
2023/09/04 05:57:36;;;;;;;;;;;;;;;18.19;nan;101325.84;5002856;28;19909;-80
2023/09/04 06:00:06;;;;;;;0.10;0.10;;;;;;;;;;5001852;28;20413;-81
2023/09/04 06:02:31;;;;;;;0.10;0.10;;;;;;;;;;5002656;28;20084;-80
2023/09/04 06:04:57;;;;;;;0.10;0.10;;;;;;;;;;5019274;28;20026;-80
2023/09/04 06:07:23;;;;;;;;;;;;;;;19.47;nan;101355.97;5021632;28;20021;-80
2023/09/04 06:09:48;;;;;;;0.10;0.10;;;;;;;;;;5021348;28;19999;-79
2023/09/04 06:12:15;;;;;;;0.10;0.10;;;;;;;22.39;100.00;119881.88;5002272;28;20025;-88
2023/09/04 06:14:40;;;;;;;0.00;0.00;;;;;;;;;;5034103;23;20427;-84
2023/09/04 06:17:06;;;;;;;0.10;0.10;;;;;;;20.84;nan;101449.75;5034929;28;20039;-84
2023/09/04 06:19:31;;;;;;;0.10;0.10;;;;;;;;;;5052303;28;20317;-83
2023/09/04 06:21:56;;;;;;;;;;;;;;;21.39;nan;101367.28;5061932;28;20508;-84
2023/09/04 06:24:22;;;;;;;0.10;0.10;;;;;;;21.67;nan;101358.25;5057904;28;19918;-84
2023/09/04 06:26:47;;;;;;;;;;;;;;;;;;5057450;28;20052;-84
2023/09/04 06:29:13;;;;;;;;;;;;;;;22.04;nan;101391.00;5038735;28;19928;-84
2023/09/04 06:31:38;;;;;;;;;;;;;;;22.30;nan;101375.91;5047296;28;19924;-84
2023/09/04 06:34:04;;;;;;;0.10;0.10;;;;;;;;;;5055796;28;19908;-85
2023/09/04 06:36:30;;;;;;;0.10;0.10;;;;;;;22.66;nan;101376.22;5051680;28;20267;-85
2023/09/04 06:38:55;;;;;;;0.10;0.10;;;;;;;22.88;nan;101403.78;5049216;28;20453;-84
2023/09/04 06:41:21;;;;;;;0.00;0.00;;;;;;;;;;5042285;28;20039;-84
2023/09/04 06:43:46;;;;;;;0.00;0.00;;;;;;;23.33;nan;101370.63;5065037;28;20030;-83
2023/09/04 06:46:12;;;;;;;0.00;0.00;;;;;;;;;;5036916;28;20546;-84
2023/09/04 06:48:38;;;;;;;0.00;0.00;;;;;;;23.70;nan;101351.94;5051978;28;20432;-84
2023/09/04 06:51:03;;;;;;;0.00;0.00;;;;;;;24.02;nan;101349.22;5056529;28;20017;-85
2023/09/04 06:53:29;;;;;;;0.10;0.10;;;;;;;;;;5050337;28;20374;-85
2023/09/04 06:55:54;;;;;;;0.00;0.00;;;;;;;;;;5030362;28;20405;-85
2023/09/04 06:58:19;;;;;;;0.00;0.00;;;;;;;;;;5042882;28;20424;-84
2023/09/04 07:00:44;;;;;;;0.00;0.00;;;;;;;;;;5027693;28;20389;-84
2023/09/04 07:03:10;;;;;;;0.00;0.00;;;;;;;;;;5061293;28;20398;-85
2023/09/04 07:05:35;;;;;;;;;;;;;;;26.51;nan;101361.72;5037824;28;20586;-85
2023/09/04 07:08:00;;;;;;;0.00;0.00;;;;;;;;;;5037022;28;19913;-85
2023/09/04 07:10:25;;;;;;;0.00;0.00;;;;;;;;;;5041182;28;20411;-84
2023/09/04 07:12:51;;;;;;;0.00;0.00;;;;;;;;;;5046570;28;20406;-85
2023/09/04 07:15:16;;;;;;;0.00;0.00;;;;;;;;;;5028178;28;20401;-85
2023/09/04 07:17:41;;;;;;;0.00;0.00;;;;;;;;;;5027120;28;20439;-84
2023/09/04 07:20:07;;;;;;;0.00;0.00;;;;;;;;;;5029235;28;20432;-85
2023/09/04 07:22:32;;;;;;;0.00;0.00;;;;;;;;;;5030587;28;20416;-84
2023/09/04 07:24:57;;;;;;;0.00;0.00;;;;;;;;;;5045769;28;20399;-85
2023/09/04 07:27:24;;;;;;;0.00;0.00;;;;;;;;;;5051286;28;20443;-85
2023/09/04 07:29:49;;;;;;;0.00;0.00;;;;;;;;;;5042660;28;20479;-85
2023/09/04 07:32:15;;;;;;;0.00;0.00;;;;;;;;;;5033012;28;20404;-85
2023/09/04 07:34:40;;;;;;;0.00;0.00;;;;;;;;;;5056674;28;20405;-85
2023/09/04 07:37:05;;;;;;;0.00;0.00;;;;;;;;;;5035587;28;20423;-85
2023/09/04 07:39:30;;;;;;;0.00;0.00;;;;;;;;;;5048267;28;20400;-84
2023/09/04 07:41:58;;;;;;;0.00;0.00;;;;;;;;;;5035113;28;20398;-85
2023/09/04 07:44:23;;;;;;;0.00;0.00;;;;;;;;;;5065979;28;20547;-86
2023/09/04 07:46:49;;;;;;;0.00;0.00;;;;;;;;;;5057604;28;20478;-84
2023/09/04 07:49:14;;;;;;;0.00;0.00;;;;;;;;;;5057103;28;20388;-85
2023/09/04 07:51:39;;;;;;;0.00;0.00;;;;;;;;;;5048272;28;20384;-85
2023/09/04 07:54:05;;;;;;;0.00;0.00;;;;;;;;;;5031454;28;20405;-84
2023/09/04 07:56:30;;;;;;;0.00;0.00;;;;;;;;;;5028147;28;20419;-85
2023/09/04 07:58:55;;;;;;;0.00;0.00;;;;;;;;;;5044453;28;20401;-84
2023/09/04 08:01:20;;;;;;;0.00;0.00;;;;;;;;;;5058749;28;20494;-86
2023/09/04 08:03:45;;;;;;;0.00;0.00;;;;;;;;;;5035322;28;20746;-84
2023/09/04 08:06:11;;;;;;;0.00;0.00;;;;;;;;;;5039516;28;20406;-85
2023/09/04 08:08:36;;;;;;;0.00;0.00;;;;;;;;;;5044890;28;20438;-85
2023/09/04 08:11:01;;;;;;;0.00;0.00;;;;;;;;;;5036178;28;20886;-85
2023/09/04 08:13:26;;;;;;;0.00;0.00;;;;;;;;;;5037132;28;20855;-85
2023/09/04 08:15:52;;;;;;;0.00;0.00;;;;;;;;;;5057725;28;20407;-85
2023/09/04 08:18:17;;;;;;;0.00;0.00;;;;;;;;;;5063329;28;20919;-85
2023/09/04 08:20:42;;;;;;;0.00;0.00;;;;;;;;;;5042204;28;20407;-83
2023/09/04 08:23:09;;;;;;;0.00;0.00;;;;;;;;;;5058988;28;20399;-85
2023/09/04 08:25:34;;;;;;;0.00;0.00;;;;;;;;;;5044577;28;20446;-84
2023/09/04 08:27:59;;;;;;;0.00;0.00;;;;;;;;;;5025842;28;20996;-85
2023/09/04 08:30:25;;;;;;;0.00;0.00;;;;;;;;;;5047058;28;20411;-84
2023/09/04 08:32:50;;;;;;;0.00;0.00;;;;;;;;;;5027852;28;20429;-84
2023/09/04 08:35:15;;;;;;;0.00;0.00;;;;;;;;;;5033800;28;20937;-83
2023/09/04 08:37:41;;;;;;;0.00;0.00;;;;;;;;;;5023842;28;20409;-85
2023/09/04 08:40:06;;;;;;;0.00;0.00;;;;;;;;;;5041360;28;20436;-85
2023/09/04 08:42:32;;;;;;;0.00;0.00;;;;;;;32.42;nan;101361.94;5028683;28;20914;-84
2023/09/04 08:44:58;;;;;;;0.00;0.00;;;;;;;33.03;nan;101360.88;5030297;28;20025;-85
2023/09/04 08:47:24;;;;;;;0.00;0.00;;;;;;;33.24;nan;101367.09;5067619;23;20016;-88
2023/09/04 08:49:54;;;;;;;;;;;;;;;33.36;nan;101375.78;5009671;28;20021;-88
2023/09/04 08:52:20;;;;;;;0.00;0.00;;;;;;;33.68;nan;101366.25;5026018;28;20014;-89
2023/09/04 08:54:47;;;;;;;0.00;0.00;;;;;;;33.30;nan;101365.94;5003167;28;20124;-89
2023/09/04 08:57:13;;;;;;;0.00;0.00;;;;;;;33.03;nan;101350.75;5004669;28;20035;-87
2023/09/04 08:59:38;;;;;;;0.00;0.00;;;;;;;;;;5021048;28;20029;-86
2023/09/04 09:02:04;;;;;;;0.00;0.00;;;;;;;32.72;nan;101394.72;5022057;28;20079;-87
2023/09/04 09:04:30;;;;;;;0.00;0.00;;;;;;;;;;5022105;28;20424;-86
2023/09/04 09:06:56;;;;;;;0.00;0.00;;;;;;;33.92;nan;101380.03;5027884;28;20037;-87
2023/09/04 09:09:22;;;;;;;0.00;0.00;;;;;;;33.71;nan;101361.03;5031441;28;20489;-88
2023/09/04 09:11:53;;;;;;;0.00;0.00;;;;;;;33.54;nan;101383.34;5023271;28;20032;-87
2023/09/04 09:14:19;;;;;;;0.00;0.00;;;;;;;34.09;nan;101372.22;5041278;28;20026;-86
2023/09/04 09:16:45;;;;;;;0.00;0.00;;;;;;;34.52;nan;101377.00;5032184;28;20068;-87
2023/09/04 09:19:10;;;;;;;0.00;0.00;;;;;;;;;;5050973;28;20282;-88
2023/09/04 09:21:35;;;;;;;0.00;0.00;;;;;;;;;;5030300;28;20663;-86
2023/09/04 09:24:18;;;;;;;0.00;0.00;;;;;;;35.42;nan;101369.75;5032759;28;20040;-86
2023/09/04 09:26:46;;;;;;;0.00;0.00;;;;;;;35.71;nan;101373.16;5024363;28;20514;-86
2023/09/04 09:29:13;;;;;;;0.00;0.00;;;;;;;35.58;nan;101381.34;5030281;28;20024;-86
2023/09/04 09:32:05;;;;;;;0.00;0.00;;;;;;;35.27;nan;101371.63;5051117;28;20284;-89
2023/09/04 09:34:34;;;;;;;0.00;0.00;;;;;;;;;;5022351;28;20603;-86
2023/09/04 09:37:00;;;;;;;0.00;0.00;;;;;;;34.35;nan;101360.97;5033151;28;20437;-88
2023/09/04 09:39:25;;;;;;;;;;;;;;;35.10;nan;101363.91;5029263;28;20041;-86
2023/09/04 09:41:50;;;;;;;0.00;0.00;;;;;;;34.97;nan;101347.28;5030572;28;19916;-85
2023/09/04 09:44:16;;;;;;;0.00;0.00;;;;;;;;;;5020258;28;20022;-85
2023/09/04 09:46:41;;;;;;;0.00;0.00;;;;;;;35.16;nan;101411.41;5014659;28;20280;-86
2023/09/04 09:49:07;;;;;;;0.00;0.00;;;;;;;35.71;nan;101358.59;5039659;28;20025;-87
2023/09/04 09:51:33;;;;;;;0.00;0.00;;;;;;;35.92;nan;101351.63;5064172;28;20473;-85
2023/09/04 09:53:58;;;;;;;0.00;0.00;;;;;;;36.27;nan;101378.81;5030425;28;20030;-85
2023/09/04 09:56:24;;;;;;;0.00;0.00;;;;;;;36.32;nan;101354.72;5022005;28;20029;-86
2023/09/04 09:58:49;;;;;;;0.00;0.00;;;;;;;35.85;nan;101348.44;5018720;28;20060;-86
2023/09/04 10:01:17;;;;;;;0.00;0.00;;;;;;;35.70;nan;101337.69;5034868;28;20044;-85
2023/09/04 10:03:47;;;;;;;0.00;0.00;;;;;;;35.12;nan;101366.38;5027831;28;20028;-85
2023/09/04 10:06:18;;;;;;;0.00;0.00;;;;;;;;;;5028180;28;20075;-86
2023/09/04 10:08:47;;;;;;;0.00;0.00;;;;;;;35.20;nan;101335.44;5031940;28;20063;-87
2023/09/04 10:11:14;;;;;;;0.00;0.00;;;;;;;35.73;nan;101343.41;5048573;28;20216;-86
2023/09/04 10:13:52;;;;;;;0.00;0.00;;;;;;;35.56;nan;101337.59;5033269;28;20029;-87
2023/09/04 10:16:28;;;;;;;0.00;0.00;;;;;;;35.34;nan;101342.94;5050826;28;20429;-85
2023/09/04 10:18:54;;;;;;;0.00;0.00;;;;;;;;;;5015402;28;20590;-85
2023/09/04 10:21:22;;;;;;;0.00;0.00;;;;;;;35.08;nan;101338.59;5026983;28;20056;-87
2023/09/04 10:23:52;;;;;;;0.00;0.00;;;;;;;35.15;nan;101310.78;5029258;28;20053;-85
2023/09/04 10:26:26;;;;;;;0.00;0.00;;;;;;;35.12;nan;101332.56;5046661;28;20017;-87
2023/09/04 10:29:01;;;;;;;0.00;0.00;;;;;;;34.97;nan;101317.91;5045955;28;20708;-87
2023/09/04 10:31:26;;;;;;;0.00;0.00;;;;;;;35.29;nan;101328.16;5033523;28;20124;-85
2023/09/04 10:33:53;;;;;;;0.00;0.00;;;;;;;36.07;nan;101320.22;5031316;28;20484;-86
2023/09/04 10:36:20;;;;;;;0.00;0.00;;;;;;;36.16;nan;101314.88;5024555;28;20017;-88
2023/09/04 10:38:45;;;;;;;0.00;0.00;;;;;;;36.41;nan;101288.72;5023249;28;20030;-86
2023/09/04 10:41:11;;;;;;;0.00;0.00;;;;;;;;;;5029291;28;20040;-87
2023/09/04 10:43:40;;;;;;;0.00;0.00;;;;;;;36.05;nan;101302.38;5024491;28;20287;-86
2023/09/04 10:46:09;;;;;;;0.00;0.00;;;;;;;35.78;nan;101284.72;5039144;28;20444;-88
2023/09/04 10:48:41;;;;;;;0.00;0.00;;;;;;;;;;5045758;28;20037;-88
2023/09/04 10:51:29;;;;;;;0.00;0.00;;;;;;;36.72;nan;101301.88;5042790;28;20025;-86
2023/09/04 10:54:00;;;;;;;0.00;0.00;;;;;;;37.67;nan;101292.72;5026779;28;20485;-87
2023/09/04 10:56:26;;;;;;;0.00;0.00;;;;;;;38.20;nan;101289.88;5023565;28;20060;-86
2023/09/04 10:59:03;;;;;;;0.00;0.00;;;;;;;38.94;nan;101298.47;5046148;28;20498;-87
2023/09/04 11:01:38;;;;;;;0.00;0.00;;;;;;;39.64;nan;101307.50;5027691;28;20039;-89
2023/09/04 11:04:06;;;;;;;0.00;0.00;;;;;;;39.34;nan;101298.28;5028235;28;20099;-88
2023/09/04 11:06:34;;;;;;;0.00;0.00;;;;;;;39.17;nan;101283.34;5028434;28;20025;-86
2023/09/04 11:09:01;;;;;;;0.00;0.00;;;;;;;39.20;nan;101266.06;5023125;28;20231;-88
2023/09/04 11:11:26;;;;;;;;;;;;;;;39.37;nan;101297.66;5040372;28;20035;-88
2023/09/04 11:13:56;;;;;;;;;;;;;;;39.02;nan;101292.13;5027141;28;20393;-88
2023/09/04 11:16:23;;;;;;;;;;;;;;;39.46;nan;101290.94;5039597;28;20069;-87
2023/09/04 11:18:59;;;;;;;;;;;;;;;39.78;nan;101299.78;5040333;28;20081;-86
2023/09/04 11:21:29;;;;;;;;;;;;;;;40.06;nan;101286.34;5030302;28;20312;-87
2023/09/04 11:23:55;;;;;;;;;;;;;;;40.57;nan;101285.56;5045936;28;20560;-87
2023/09/04 11:26:21;;;;;;;;;;;;;;;40.50;nan;101288.88;5026135;28;20004;-87
2023/09/04 11:28:46;;;;;;;;;;;;;;;39.68;nan;101286.31;5028898;28;20003;-88
2023/09/04 11:31:11;;;;;;;;;;;;;;;39.43;nan;101286.09;5016610;28;20113;-86
2023/09/04 11:33:36;;;;;;;;;;;;;;;39.18;nan;101284.16;5026240;28;20381;-88
2023/09/04 11:36:03;;;;;;;;;;;;;;;39.92;nan;101291.31;5028342;28;20411;-87
2023/09/04 11:38:29;;;;;;;;;;;;;;;40.55;nan;101288.69;5046990;28;19924;-87
2023/09/04 11:40:54;;;;;;;;;;;;;;;40.20;nan;101280.56;5047917;28;19917;-87
2023/09/04 11:43:20;;;;;;;;;;;;;;;40.23;nan;101290.97;5031159;28;20356;-88
2023/09/04 11:45:45;;;;;;;;;;;;;;;39.54;nan;101281.00;5031727;28;19912;-88
2023/09/04 11:48:12;;;;;;;;;;;;;;;38.62;nan;101261.88;5048731;28;20007;-88
2023/09/04 11:50:37;;;;;;;;;;;;;;;38.03;nan;101260.25;5052658;28;19919;-87
2023/09/04 11:53:03;;;;;;;;;;;;;;;37.46;nan;101249.06;5048798;28;20377;-88
2023/09/04 11:55:28;;;;;;;;;;;;;;;36.69;nan;101242.66;5047036;28;19909;-87
2023/09/04 11:57:53;;;;;;;;;;;;;;;36.03;nan;101242.09;5030745;28;19955;-87
2023/09/04 12:00:19;;;;;;;;;;;;;;;35.43;nan;101239.38;5031322;28;19923;-88
2023/09/04 12:02:44;;;;;;;;;;;;;;;34.97;nan;101240.94;5050813;28;19909;-85
2023/09/04 12:05:10;;;;;;;;;;;;;;;34.75;nan;101232.47;5051525;28;19999;-87
2023/09/04 12:07:36;;;;;;;;;;;;;;;33.95;nan;101228.56;5048793;28;19917;-87
2023/09/04 12:10:01;;;;;;;;;;;;;;;33.66;nan;101228.56;5047886;28;19923;-87
2023/09/04 12:12:26;;;;;;;;;;;;;;;33.47;nan;101229.28;5030648;28;19909;-87
2023/09/04 12:14:51;;;;;;;;;;;;;;;32.99;nan;101212.69;5030973;28;19916;-86
2023/09/04 12:17:17;;;;;;;;;;;;;;;32.69;nan;101214.53;5030537;28;20007;-86
2023/09/04 12:19:42;;;;;;;;;;;;;;;32.49;nan;101209.13;5042884;28;20308;-87
2023/09/04 12:22:14;;;;;;;;;;;;;;;32.22;nan;101204.09;5017049;28;19909;-88
2023/09/04 12:24:56;;;;;;;;;;;;;;;31.74;nan;101193.56;5046313;28;19907;-87
2023/09/04 12:27:21;;;;;;;;;;;;;;;31.55;nan;101196.06;5036346;28;19916;-88
2023/09/04 12:29:47;;;;;;;;;;;;;;;31.33;nan;101183.50;5043313;28;20126;-86
2023/09/04 12:32:12;;;;;;;;;;;;;;;31.31;nan;101190.31;5030421;28;19918;-87
2023/09/04 12:34:38;;;;;;;;;;;;;;;31.29;nan;101182.41;5042995;28;19959;-86
2023/09/04 12:37:04;;;;;;;;;;;;;;;31.23;nan;101188.16;5046198;28;20259;-88
2023/09/04 12:39:29;;;;;;;;;;;;;;;31.03;nan;101180.78;5046327;28;19912;-88
2023/09/04 12:41:55;;;;;;;;;;;;;;;30.84;nan;101180.50;5032479;28;20024;-87
2023/09/04 12:44:20;;;;;;;;;;;;;;;30.42;nan;101184.22;5031506;28;19951;-87
2023/09/04 12:46:45;;;;;;;;;;;;;;;30.42;nan;101189.69;5034008;28;20313;-88
2023/09/04 12:49:11;;;;;;;0.00;0.00;;;;;;;30.25;nan;101130.69;5050196;28;20420;-88
2023/09/04 12:51:36;;;;;;;0.00;0.00;;;;;;;;;;5031115;28;20481;-87
2023/09/04 12:54:01;;;;;;;0.00;0.00;;;;;;;30.24;nan;101153.56;5047123;28;20029;-87
2023/09/04 12:56:26;;;;;;;0.00;0.00;;;;;;;;;;5032462;28;20029;-88
2023/09/04 12:58:52;;;;;;;0.00;0.00;;;;;;;;;;5048375;28;20036;-88
2023/09/04 13:01:17;;;;;;;0.00;0.00;;;;;;;30.21;nan;101139.66;5036793;28;20021;-88
2023/09/04 13:03:43;;;;;;;0.00;0.00;;;;;;;;;;5032223;28;20036;-88
2023/09/04 13:06:08;;;;;;;0.00;0.00;;;;;;;;;;5050006;28;20104;-87
2023/09/04 13:08:33;;;;;;;0.00;0.00;;;;;;;;;;5031102;28;20036;-87
2023/09/04 13:10:59;;;;;;;0.00;0.00;;;;;;;29.81;nan;101092.06;5039957;28;20024;-85
2023/09/04 13:13:24;;;;;;;0.00;0.00;;;;;;;29.78;nan;101126.13;5025274;28;20124;-89
2023/09/04 13:15:49;;;;;;;0.00;0.00;;;;;;;29.72;nan;101132.63;5019857;28;20426;-87
2023/09/04 13:18:14;;;;;;;0.00;0.00;;;;;;;;;;5024731;28;20036;-87
2023/09/04 13:20:40;;;;;;;0.00;0.00;;;;;;;29.69;nan;101084.09;5030198;28;20657;-87
2023/09/04 13:23:05;;;;;;;0.00;0.00;;;;;;;29.59;nan;101073.13;5035846;28;20398;-87
2023/09/04 13:25:30;;;;;;;0.00;0.00;;;;;;;;;;5047330;28;20029;-86